Time;durP1;ratioP1;P1;durP2;ratioP2;P2;SDS_P1;SDS_P2;PMS_P1;PMS_P2;Temp;Humidity;BMP_temperature;BMP_pressure;BME280_temperature;BME280_humidity;BME280_pressure;Samples;Min_cycle;Max_cycle;Signal;HPM_P1;HPM_P2
2021/12/21 00:02:13;;;;;;;6.07;3.03;;;;;;;;;;5029024;28;20202;-78
2021/12/21 00:04:38;;;;;;;4.23;3.17;;;;;;;;;;5028010;28;20201;-78
2021/12/21 00:07:05;;;;;;;7.57;3.83;;;;;;;;;;5029284;28;20265;-78
2021/12/21 00:09:30;;;;;;;8.40;4.00;;;;;;;;;;5029651;28;20206;-78
2021/12/21 00:11:57;;;;;;;7.50;3.40;;;;;;;;;;5031178;28;20217;-78
2021/12/21 00:14:34;;;;;;;7.87;3.30;;;;;;;;;;5038873;28;20228;-78
2021/12/21 00:17:09;;;;;;;5.80;3.70;;;;;;;;;;5029520;28;20232;-78
2021/12/21 00:22:08;;;;;;;7.10;3.50;;;;;;;;;;5024321;28;20171;-78
2021/12/21 00:24:44;;;;;;;6.67;3.43;;;;;;;;;;5035023;28;20187;-78
2021/12/21 00:27:09;;;;;;;5.50;3.27;;;;;;;;;;5029138;28;20177;-78
2021/12/21 00:29:35;;;;;;;4.53;3.13;;;;;;;;;;5029697;28;20179;-78
2021/12/21 00:32:00;;;;;;;5.93;4.90;;;;;;;;;;5030358;28;20202;-78
2021/12/21 00:34:25;;;;;;;7.27;2.80;;;;;;;;;;5030559;28;20205;-78
2021/12/21 00:36:52;;;;;;;7.37;3.20;;;;;;;;;;5030439;28;20249;-78
2021/12/21 00:39:17;;;;;;;11.17;3.50;;;;;;;;;;5030979;28;20231;-78
2021/12/21 00:41:42;;;;;;;7.07;3.00;;;;;;;;;;5025776;28;20315;-78
2021/12/21 00:44:07;;;;;;;6.93;3.93;;;;;;;;;;5010535;28;20198;-78
2021/12/21 00:46:32;;;;;;;4.20;3.13;;;;;;;;;;5012913;28;20180;-78
2021/12/21 00:49:11;;;;;;;6.00;3.73;;;;;;;;;;5012660;28;20175;-78
2021/12/21 00:51:36;;;;;;;4.97;3.17;;;;;;;;;;5012982;28;20175;-78
2021/12/21 00:54:02;;;;;;;6.57;3.43;;;;;;;;;;5012533;28;20186;-78
2021/12/21 00:56:27;;;;;;;9.50;3.10;;;;;;;;;;5011188;28;20297;-78
2021/12/21 00:58:52;;;;;;;5.40;3.23;;;;;;;;;;5012408;28;20207;-78
2021/12/21 01:01:17;;;;;;;3.73;2.50;;;;;;;;;;5012626;28;20210;-78
2021/12/21 01:03:47;;;;;;;4.87;3.03;;;;;;;;;;5012433;28;20187;-78
2021/12/21 01:06:21;;;;;;;5.83;3.43;;;;;;;;;;5010547;28;20186;-79
2021/12/21 01:11:34;;;;;;;6.53;3.53;;;;;;;;;;5013128;28;20183;-79
2021/12/21 01:17:01;;;;;;;7.10;3.33;;;;;;;;;;5001652;28;20230;-78
2021/12/21 01:19:51;;;;;;;6.23;3.13;;;;;;;;;;5012393;28;20245;-78
2021/12/21 01:22:23;;;;;;;5.23;3.43;;;;;;;;;;5007057;28;20179;-78
2021/12/21 01:25:16;;;;;;;6.47;3.20;;;;;;;;;;5012796;28;20274;-78
2021/12/21 01:27:58;;;;;;;5.03;3.30;;;;;;;;;;5009949;28;20194;-78
2021/12/21 01:30:38;;;;;;;4.93;2.87;;;;;;;;;;5004986;28;20237;-78
2021/12/21 01:35:48;;;;;;;6.10;2.90;;;;;;;;;;5012118;28;20235;-79
2021/12/21 01:41:26;;;;;;;5.97;2.93;;;;;;;;;;4990560;28;20183;-79
2021/12/21 01:44:06;;;;;;;7.70;3.73;;;;;;;;;;5011690;28;20226;-79
2021/12/21 01:49:41;;;;;;;5.60;2.97;;;;;;;;;;5013546;28;20190;-79
2021/12/21 01:52:08;;;;;;;4.93;2.87;;;;;;;;;;5009468;28;20191;-79
2021/12/21 01:54:34;;;;;;;7.60;3.70;;;;;;;;;;5011271;28;20187;-79
2021/12/21 01:56:59;;;;;;;9.13;3.57;;;;;;;;;;5010999;28;20207;-79
2021/12/21 01:59:24;;;;;;;3.77;2.40;;;;;;;;;;5012244;28;20189;-79
2021/12/21 02:01:49;;;;;;;7.73;3.50;;;;;;;;;;5011042;28;20180;-79
2021/12/21 02:04:17;;;;;;;6.80;3.30;;;;;;;;;;5010978;28;20183;-79
2021/12/21 02:06:43;;;;;;;4.07;2.97;;;;;;;;;;5010319;28;20222;-79
2021/12/21 02:09:08;;;;;;;5.83;4.13;;;;;;;;;;5010733;28;20207;-79
2021/12/21 02:11:33;;;;;;;7.07;3.80;;;;;;;;;;5012031;28;20275;-79
2021/12/21 02:14:01;;;;;;;6.27;3.57;;;;;;;;;;5010880;28;20190;-79
2021/12/21 02:16:36;;;;;;;8.67;3.80;;;;;;;;;;5011470;28;20188;-78
2021/12/21 02:19:18;;;;;;;6.40;3.57;;;;;;;;;;5010483;28;20284;-78
2021/12/21 02:21:49;;;;;;;8.27;3.67;;;;;;;;;;5010137;28;20180;-79
2021/12/21 02:24:19;;;;;;;8.47;3.83;;;;;;;;;;5011512;28;20184;-79
2021/12/21 02:27:05;;;;;;;7.10;3.83;;;;;;;;;;5009815;28;20176;-79
2021/12/21 02:29:33;;;;;;;8.07;3.77;;;;;;;;;;5012059;28;20199;-79
2021/12/21 02:31:58;;;;;;;7.87;3.60;;;;;;;;;;5011238;28;20194;-78
2021/12/21 02:34:24;;;;;;;6.37;3.63;;;;;;;;;;5012204;28;20183;-79
2021/12/21 02:36:50;;;;;;;6.33;3.87;;;;;;;;;;5009742;28;20207;-79
2021/12/21 02:39:16;;;;;;;7.83;5.40;;;;;;;;;;5010522;28;20190;-79
2021/12/21 02:41:42;;;;;;;8.43;3.70;;;;;;;;;;5014819;28;20209;-79
2021/12/21 02:44:07;;;;;;;6.40;4.23;;;;;;;;;;5051082;28;20288;-79
2021/12/21 02:46:32;;;;;;;7.13;4.43;;;;;;;;;;5034232;28;20273;-79
2021/12/21 02:48:58;;;;;;;6.47;4.33;;;;;;;;;;5032641;28;20178;-79
2021/12/21 02:51:23;;;;;;;8.43;4.40;;;;;;;;;;5042241;28;20224;-79
2021/12/21 02:53:49;;;;;;;8.43;4.30;;;;;;;;;;5050076;28;20175;-79
2021/12/21 02:56:14;;;;;;;5.37;3.87;;;;;;;;;;5032853;28;20208;-79
2021/12/21 02:58:40;;;;;;;9.17;4.73;;;;;;;;;;5033040;28;20205;-79
2021/12/21 03:01:06;;;;;;;4.97;3.57;;;;;;;;;;5033854;28;20178;-79
2021/12/21 03:03:31;;;;;;;7.90;3.60;;;;;;;;;;5034349;28;20174;-79
2021/12/21 03:05:58;;;;;;;5.73;3.60;;;;;;;;;;5033156;28;20181;-79
2021/12/21 03:08:55;;;;;;;4.20;3.63;;;;;;;;;;5055268;28;20185;-79
2021/12/21 03:11:21;;;;;;;8.80;4.10;;;;;;;;;;5048282;28;20232;-79
2021/12/21 03:14:04;;;;;;;8.03;4.53;;;;;;;;;;5033311;28;20197;-79
2021/12/21 03:16:33;;;;;;;8.93;3.57;;;;;;;;;;5035363;28;20320;-79
2021/12/21 03:18:59;;;;;;;7.03;4.10;;;;;;;;;;5032590;28;20178;-79
2021/12/21 03:21:25;;;;;;;5.70;3.63;;;;;;;;;;5033372;28;20174;-79
2021/12/21 03:23:50;;;;;;;4.90;4.20;;;;;;;;;;5031990;28;20174;-79
2021/12/21 03:26:15;;;;;;;6.30;4.17;;;;;;;;;;5038699;28;20181;-79
2021/12/21 03:28:41;;;;;;;9.27;4.23;;;;;;;;;;5032607;28;20204;-79
2021/12/21 03:31:06;;;;;;;5.77;4.13;;;;;;;;;;5033238;28;20260;-79
2021/12/21 03:33:32;;;;;;;7.83;4.10;;;;;;;;;;5032895;28;20497;-79
2021/12/21 03:36:00;;;;;;;6.70;4.17;;;;;;;;;;5034720;28;20204;-79
2021/12/21 03:38:25;;;;;;;7.57;6.87;;;;;;;;;;5038278;28;20165;-79
2021/12/21 03:40:52;;;;;;;6.00;4.87;;;;;;;;;;5033859;28;20193;-79
2021/12/21 03:43:17;;;;;;;10.63;4.70;;;;;;;;;;5050285;28;20229;-79
2021/12/21 03:45:52;;;;;;;5.07;3.50;;;;;;;;;;5037354;28;20240;-79
2021/12/21 03:48:17;;;;;;;9.97;4.53;;;;;;;;;;5049743;28;20181;-79
2021/12/21 03:50:42;;;;;;;5.03;3.83;;;;;;;;;;5032671;28;20255;-79
2021/12/21 03:53:07;;;;;;;5.87;4.13;;;;;;;;;;5032856;28;20193;-79
2021/12/21 03:55:33;;;;;;;7.73;4.10;;;;;;;;;;5032818;28;20197;-79
2021/12/21 03:57:59;;;;;;;8.13;4.53;;;;;;;;;;5035680;28;20186;-79
2021/12/21 04:00:27;;;;;;;8.10;4.87;;;;;;;;;;5032996;28;20273;-79
2021/12/21 04:02:52;;;;;;;8.03;4.53;;;;;;;;;;5032403;28;20178;-79
2021/12/21 04:05:17;;;;;;;8.23;4.63;;;;;;;;;;5033410;28;20197;-79
2021/12/21 04:07:42;;;;;;;12.77;4.53;;;;;;;;;;5036831;28;20178;-79
2021/12/21 04:10:08;;;;;;;8.47;4.77;;;;;;;;;;5035518;28;20181;-79
2021/12/21 04:12:34;;;;;;;8.10;3.93;;;;;;;;;;5031864;28;20174;-79
2021/12/21 04:15:02;;;;;;;4.37;3.93;;;;;;;;;;5033847;28;20185;-79
2021/12/21 04:17:27;;;;;;;7.83;4.13;;;;;;;;;;5037706;28;20204;-79
2021/12/21 04:19:52;;;;;;;9.60;4.53;;;;;;;;;;5044486;28;20177;-79
2021/12/21 04:22:18;;;;;;;9.13;5.77;;;;;;;;;;5044674;28;20181;-79
2021/12/21 04:24:43;;;;;;;7.77;5.33;;;;;;;;;;5038410;28;20177;-79
2021/12/21 04:27:09;;;;;;;8.30;5.30;;;;;;;;;;5044573;28;20182;-79
2021/12/21 04:29:34;;;;;;;8.50;5.77;;;;;;;;;;5038707;28;20258;-79
2021/12/21 04:31:59;;;;;;;17.03;6.47;;;;;;;;;;5038282;28;20185;-79
2021/12/21 04:34:24;;;;;;;10.90;6.90;;;;;;;;;;5038400;28;20182;-79
2021/12/21 04:36:50;;;;;;;10.47;9.47;;;;;;;;;;5041276;28;20259;-80
2021/12/21 04:39:36;;;;;;;13.47;7.47;;;;;;;;;;5041505;28;20231;-79
2021/12/21 04:42:01;;;;;;;10.00;6.00;;;;;;;;;;5029908;28;20219;-79
2021/12/21 04:44:27;;;;;;;8.57;5.07;;;;;;;;;;5014404;28;20180;-79
2021/12/21 04:46:52;;;;;;;8.83;5.87;;;;;;;;;;5014875;28;20191;-79
2021/12/21 04:49:17;;;;;;;11.27;6.03;;;;;;;;;;5015711;28;20239;-79
2021/12/21 04:51:42;;;;;;;10.87;6.27;;;;;;;;;;5015316;28;20214;-79
2021/12/21 04:54:08;;;;;;;16.70;9.93;;;;;;;;;;5015526;28;20266;-79
2021/12/21 04:56:33;;;;;;;7.87;6.60;;;;;;;;;;5015205;28;20199;-79
2021/12/21 04:58:58;;;;;;;8.97;6.03;;;;;;;;;;5013252;28;20247;-79
2021/12/21 05:01:23;;;;;;;11.33;6.80;;;;;;;;;;5014484;28;20175;-79
2021/12/21 05:03:49;;;;;;;11.50;6.10;;;;;;;;;;5015980;28;20186;-79
2021/12/21 05:06:15;;;;;;;15.97;7.27;;;;;;;;;;5014495;28;20188;-80
2021/12/21 05:08:41;;;;;;;11.80;6.43;;;;;;;;;;5017213;28;20214;-79
2021/12/21 05:11:07;;;;;;;17.97;8.13;;;;;;;;;;5014717;28;20202;-79
2021/12/21 05:13:33;;;;;;;11.03;6.47;;;;;;;;;;5015020;28;20183;-79
2021/12/21 05:15:59;;;;;;;16.17;6.97;;;;;;;;;;5019330;28;20199;-79
2021/12/21 05:18:25;;;;;;;15.93;7.13;;;;;;;;;;5014976;28;20175;-79
2021/12/21 05:20:51;;;;;;;13.33;7.07;;;;;;;;;;5015387;28;20310;-79
2021/12/21 05:23:16;;;;;;;20.43;10.43;;;;;;;;;;5014372;28;20175;-79
2021/12/21 05:25:41;;;;;;;20.33;9.67;;;;;;;;;;5008994;28;20187;-79
2021/12/21 05:28:08;;;;;;;13.47;7.03;;;;;;;;;;5013633;28;20179;-79
2021/12/21 05:30:34;;;;;;;13.73;8.10;;;;;;;;;;5016100;28;20227;-79
2021/12/21 05:32:59;;;;;;;15.00;7.87;;;;;;;;;;5012668;28;20207;-79
2021/12/21 05:35:26;;;;;;;11.77;6.73;;;;;;;;;;5011060;28;20304;-79
2021/12/21 05:37:54;;;;;;;12.73;7.70;;;;;;;;;;5013194;28;20183;-78
2021/12/21 05:40:19;;;;;;;19.73;7.07;;;;;;;;;;5012132;28;20210;-79
2021/12/21 05:42:46;;;;;;;10.90;7.00;;;;;;;;;;5013959;28;20239;-79
2021/12/21 05:45:12;;;;;;;11.37;6.30;;;;;;;;;;5007567;28;20194;-79
2021/12/21 05:47:38;;;;;;;16.83;6.90;;;;;;;;;;5009787;28;20187;-79
2021/12/21 05:50:04;;;;;;;12.20;6.20;;;;;;;;;;5010182;28;20176;-79
2021/12/21 05:52:29;;;;;;;11.20;5.20;;;;;;;;;;5006886;28;20180;-79
2021/12/21 05:54:55;;;;;;;14.10;6.30;;;;;;;;;;5011828;28;20190;-80
2021/12/21 05:57:20;;;;;;;8.33;5.40;;;;;;;;;;5010632;28;20207;-80
2021/12/21 05:59:45;;;;;;;11.97;6.67;;;;;;;;;;5012350;28;20377;-80
2021/12/21 06:02:11;;;;;;;13.43;6.63;;;;;;;;;;5012778;28;20259;-80
2021/12/21 06:04:36;;;;;;;14.70;6.83;;;;;;;;;;5011203;28;20241;-80
2021/12/21 06:07:01;;;;;;;10.47;6.10;;;;;;;;;;5011420;28;20231;-80
2021/12/21 06:09:28;;;;;;;11.97;7.10;;;;;;;;;;5012788;28;20188;-80
2021/12/21 06:12:07;;;;;;;12.47;7.03;;;;;;;;;;5010673;28;20187;-80
2021/12/21 06:25:37;;;;;;;9.53;6.03;;;;;;;;;;5014210;28;20185;-80
2021/12/21 06:27:50;;;;;;;8.17;5.03;;;;;;;;;;5012108;28;20191;-81
2021/12/21 06:30:15;;;;;;;13.27;6.00;;;;;;;;;;5011992;28;20186;-81
2021/12/21 06:32:41;;;;;;;8.77;6.40;;;;;;;;;;5010002;28;20186;-81
2021/12/21 06:35:06;;;;;;;14.47;10.50;;;;;;;;;;5008024;28;20167;-81
2021/12/21 06:37:32;;;;;;;5.73;4.37;;;;;;;;;;5009759;28;20203;-81
2021/12/21 06:39:57;;;;;;;7.47;5.73;;;;;;;;;;5009069;28;20176;-80
2021/12/21 06:42:23;;;;;;;9.47;6.20;;;;;;;;;;5009656;28;20316;-81
2021/12/21 06:44:54;;;;;;;7.23;5.10;;;;;;;;;;5011076;28;20178;-81
2021/12/21 06:52:47;;;;;;;9.27;5.60;;;;;;;;;;5009876;28;20222;-81
2021/12/21 06:55:12;;;;;;;16.77;11.07;;;;;;;;;;5010632;28;20215;-81
2021/12/21 06:57:42;;;;;;;10.07;6.53;;;;;;;;;;5009846;28;20207;-81
2021/12/21 07:00:09;;;;;;;13.40;8.17;;;;;;;;;;5007651;28;20174;-81
2021/12/21 07:02:34;;;;;;;9.97;6.27;;;;;;;;;;5009633;28;20175;-81
2021/12/21 07:04:59;;;;;;;13.03;7.97;;;;;;;;;;5012849;28;20259;-81
2021/12/21 07:07:25;;;;;;;10.30;5.87;;;;;;;;;;5012245;28;20179;-81
2021/12/21 07:09:59;;;;;;;7.83;6.03;;;;;;;;;;5009032;28;20183;-80
2021/12/21 07:20:32;;;;;;;19.43;10.97;;;;;;;;;;5010914;28;20182;-81
2021/12/21 07:22:58;;;;;;;13.13;8.10;;;;;;;;;;5007904;28;20185;-81
2021/12/21 07:25:25;;;;;;;9.70;7.07;;;;;;;;;;5010416;28;20175;-80
2021/12/21 07:27:53;;;;;;;8.70;6.50;;;;;;;;;;5009021;28;20172;-81
2021/12/21 07:30:19;;;;;;;14.33;7.53;;;;;;;;;;5010342;28;20175;-81
2021/12/21 07:32:44;;;;;;;11.17;7.50;;;;;;;;;;5009079;28;20244;-81
2021/12/21 07:35:09;;;;;;;17.07;8.83;;;;;;;;;;5009381;28;20183;-81
2021/12/21 07:37:35;;;;;;;9.43;7.73;;;;;;;;;;5013663;28;20203;-81
2021/12/21 07:40:01;;;;;;;9.57;7.07;;;;;;;;;;5009791;28;20327;-81
2021/12/21 07:42:26;;;;;;;11.00;5.97;;;;;;;;;;5008308;28;20353;-81
2021/12/21 07:44:51;;;;;;;10.87;7.43;;;;;;;;;;5009164;28;20175;-80
2021/12/21 07:47:17;;;;;;;10.67;7.03;;;;;;;;;;5023617;28;20269;-81
2021/12/21 07:49:42;;;;;;;8.90;6.37;;;;;;;;;;5009579;28;20183;-81
2021/12/21 07:52:09;;;;;;;9.07;5.90;;;;;;;;;;5009205;28;20175;-80
2021/12/21 07:54:34;;;;;;;5.23;4.57;;;;;;;;;;5010581;28;20217;-81
2021/12/21 07:56:59;;;;;;;6.77;4.93;;;;;;;;;;5009456;28;20231;-81
2021/12/21 07:59:25;;;;;;;13.43;8.67;;;;;;;;;;5009854;28;20186;-80
2021/12/21 08:01:50;;;;;;;9.20;6.80;;;;;;;;;;5009066;28;20179;-81
2021/12/21 08:04:15;;;;;;;12.07;8.37;;;;;;;;;;5009696;28;20214;-80
2021/12/21 08:06:44;;;;;;;11.00;8.53;;;;;;;;;;5008802;28;20431;-80
2021/12/21 08:09:09;;;;;;;11.67;8.17;;;;;;;;;;5008393;28;20211;-81
2021/12/21 08:14:00;;;;;;;12.97;7.40;;;;;;;;;;5009381;28;20214;-80
2021/12/21 08:16:28;;;;;;;11.40;7.33;;;;;;;;;;5004076;28;20200;-81
2021/12/21 08:18:53;;;;;;;11.57;6.77;;;;;;;;;;5010636;28;20179;-80
2021/12/21 08:21:19;;;;;;;13.67;7.53;;;;;;;;;;5009322;28;20225;-81
2021/12/21 08:23:44;;;;;;;9.67;6.07;;;;;;;;;;5008924;28;20183;-81
2021/12/21 08:26:10;;;;;;;11.10;6.10;;;;;;;;;;5008812;28;20183;-81
2021/12/21 08:28:35;;;;;;;11.87;6.90;;;;;;;;;;5009467;28;20202;-80
2021/12/21 08:31:00;;;;;;;9.80;6.87;;;;;;;;;;5008400;28;20187;-81
2021/12/21 08:33:26;;;;;;;10.13;5.97;;;;;;;;;;5010201;28;20179;-81
2021/12/21 08:35:51;;;;;;;9.30;6.03;;;;;;;;;;5008660;28;20195;-80
2021/12/21 08:38:18;;;;;;;15.97;5.90;;;;;;;;;;5009255;28;20172;-80
2021/12/21 08:40:46;;;;;;;14.07;7.10;;;;;;;;;;5009937;28;20178;-80
2021/12/21 08:43:16;;;;;;;13.87;7.70;;;;;;;;;;5007739;28;20255;-80
2021/12/21 08:45:43;;;;;;;10.87;7.13;;;;;;;;;;5007769;28;20202;-80
2021/12/21 08:48:10;;;;;;;21.07;7.00;;;;;;;;;;5009126;28;20176;-80
2021/12/21 08:50:35;;;;;;;10.70;6.90;;;;;;;;;;5008457;28;20183;-79
2021/12/21 08:53:01;;;;;;;11.33;6.93;;;;;;;;;;5005117;28;20183;-79
2021/12/21 08:55:26;;;;;;;9.37;6.80;;;;;;;;;;5009220;28;20176;-79
2021/12/21 08:57:52;;;;;;;13.07;7.03;;;;;;;;;;5007937;28;20187;-79
2021/12/21 09:00:17;;;;;;;13.37;6.80;;;;;;;;;;5008813;28;20221;-79
2021/12/21 09:02:43;;;;;;;14.43;7.07;;;;;;;;;;5008100;28;20167;-80
2021/12/21 09:05:12;;;;;;;9.80;5.67;;;;;;;;;;5010275;28;20180;-80
2021/12/21 09:07:47;;;;;;;11.17;6.43;;;;;;;;;;5015302;28;20266;-80
2021/12/21 09:10:13;;;;;;;9.03;5.60;;;;;;;;;;5011536;28;20179;-80
2021/12/21 09:12:39;;;;;;;16.20;6.90;;;;;;;;;;5009801;28;20186;-80
2021/12/21 09:15:05;;;;;;;10.93;6.20;;;;;;;;;;5012291;28;20183;-80
2021/12/21 09:17:30;;;;;;;11.07;6.83;;;;;;;;;;5008835;28;20192;-80
2021/12/21 09:19:56;;;;;;;13.07;7.13;;;;;;;;;;5010090;28;20182;-80
2021/12/21 09:22:21;;;;;;;12.37;7.33;;;;;;;;;;5007919;28;20210;-80
2021/12/21 09:24:47;;;;;;;13.47;7.50;;;;;;;;;;5009722;28;20184;-80
2021/12/21 09:27:12;;;;;;;15.03;7.43;;;;;;;;;;5012209;28;20262;-80
2021/12/21 09:29:38;;;;;;;15.53;7.80;;;;;;;;;;5009821;28;20246;-80
2021/12/21 09:32:04;;;;;;;11.80;7.10;;;;;;;;;;5011497;28;20183;-80
2021/12/21 09:34:29;;;;;;;14.70;7.63;;;;;;;;;;5012025;28;20211;-80
2021/12/21 09:36:54;;;;;;;12.67;7.87;;;;;;;;;;5005146;28;20206;-80
2021/12/21 09:39:20;;;;;;;17.93;8.17;;;;;;;;;;5005821;28;20262;-80
2021/12/21 09:41:45;;;;;;;14.43;8.13;;;;;;;;;;5015782;28;20245;-80
2021/12/21 09:44:11;;;;;;;14.23;7.77;;;;;;;;;;5047761;28;20248;-80
2021/12/21 09:46:36;;;;;;;12.47;6.63;;;;;;;;;;5034363;28;20186;-80
2021/12/21 09:49:01;;;;;;;19.17;9.17;;;;;;;;;;5038922;28;20245;-80
2021/12/21 09:51:26;;;;;;;16.53;7.77;;;;;;;;;;5038588;28;20221;-80
2021/12/21 09:53:54;;;;;;;15.27;8.53;;;;;;;;;;5030703;28;20182;-80
2021/12/21 09:56:20;;;;;;;13.93;7.43;;;;;;;;;;5035035;28;20267;-80
2021/12/21 09:58:46;;;;;;;12.17;7.97;;;;;;;;;;5027993;28;20183;-81
2021/12/21 10:01:11;;;;;;;18.90;8.50;;;;;;;;;;5051852;28;20181;-81
2021/12/21 10:03:36;;;;;;;16.63;7.67;;;;;;;;;;5035164;28;20182;-81
2021/12/21 10:06:06;;;;;;;17.90;9.27;;;;;;;;;;5051706;28;20177;-82
2021/12/21 10:08:32;;;;;;;15.37;5.67;;;;;;;;;;5040220;28;20190;-82
2021/12/21 10:10:58;;;;;;;11.47;5.80;;;;;;;;;;5035643;28;20182;-82
2021/12/21 10:13:25;;;;;;;10.50;5.70;;;;;;;;;;5040423;28;20181;-81
2021/12/21 10:15:52;;;;;;;13.77;6.63;;;;;;;;;;5028808;28;20198;-81
2021/12/21 10:18:23;;;;;;;10.80;5.43;;;;;;;;;;5053635;28;20171;-82
2021/12/21 10:20:48;;;;;;;16.83;9.73;;;;;;;;;;5036363;28;20197;-81
2021/12/21 10:23:15;;;;;;;9.40;5.03;;;;;;;;;;5034178;28;20174;-82
2021/12/21 10:25:42;;;;;;;12.87;9.20;;;;;;;;;;5034733;28;20193;-81
2021/12/21 10:28:08;;;;;;;10.70;6.20;;;;;;;;;;5034698;28;20171;-81
2021/12/21 10:30:33;;;;;;;11.53;6.47;;;;;;;;;;5034040;28;20247;-80
2021/12/21 10:33:00;;;;;;;15.13;9.37;;;;;;;;;;5033529;28;20205;-80
2021/12/21 10:35:29;;;;;;;11.17;8.47;;;;;;;;;;5034078;28;20178;-80
2021/12/21 10:37:55;;;;;;;11.17;6.70;;;;;;;;;;5034575;28;20374;-80
2021/12/21 10:40:27;;;;;;;13.70;7.93;;;;;;;;;;5034597;28;20168;-80
2021/12/21 10:43:00;;;;;;;14.37;7.17;;;;;;;;;;5017203;28;20222;-79
2021/12/21 10:45:25;;;;;;;10.60;6.10;;;;;;;;;;5012529;28;20199;-79
2021/12/21 10:47:50;;;;;;;7.43;5.63;;;;;;;;;;5011292;28;20203;-79
2021/12/21 10:50:15;;;;;;;9.40;5.23;;;;;;;;;;5010479;28;20181;-79
2021/12/21 10:52:42;;;;;;;10.53;5.80;;;;;;;;;;5010795;28;20245;-79
2021/12/21 10:55:07;;;;;;;12.30;7.80;;;;;;;;;;5011347;28;20199;-79
2021/12/21 10:57:33;;;;;;;8.53;7.37;;;;;;;;;;5010426;28;20199;-79
2021/12/21 11:00:25;;;;;;;14.13;7.63;;;;;;;;;;5008274;28;20200;-79
2021/12/21 11:02:53;;;;;;;13.60;6.93;;;;;;;;;;5002474;28;20227;-79
2021/12/21 11:05:20;;;;;;;12.70;6.67;;;;;;;;;;5010949;28;20179;-79
2021/12/21 11:07:54;;;;;;;9.60;6.83;;;;;;;;;;5009320;28;20206;-78
2021/12/21 11:10:26;;;;;;;12.07;7.10;;;;;;;;;;5010600;28;20176;-79
2021/12/21 11:12:53;;;;;;;9.57;6.10;;;;;;;;;;5010517;28;20249;-79
2021/12/21 11:15:20;;;;;;;13.40;8.53;;;;;;;;;;5010038;28;20202;-78
2021/12/21 11:17:46;;;;;;;12.33;7.83;;;;;;;;;;5010139;28;20195;-78
2021/12/21 11:20:12;;;;;;;11.17;7.73;;;;;;;;;;5010689;28;20167;-78
2021/12/21 11:22:38;;;;;;;14.00;7.53;;;;;;;;;;5007410;28;20187;-79
2021/12/21 11:25:03;;;;;;;11.23;7.90;;;;;;;;;;5010955;28;20218;-78
2021/12/21 11:27:29;;;;;;;14.87;8.03;;;;;;;;;;5010029;28;20179;-78
2021/12/21 11:29:58;;;;;;;11.60;7.63;;;;;;;;;;5010459;28;20204;-78
2021/12/21 11:32:24;;;;;;;10.50;6.37;;;;;;;;;;5006910;28;20175;-78
2021/12/21 11:37:34;;;;;;;10.90;7.37;;;;;;;;;;5008081;28;20306;-78
2021/12/21 11:40:00;;;;;;;10.60;7.50;;;;;;;;;;5006689;28;20179;-78
2021/12/21 11:42:32;;;;;;;14.40;8.93;;;;;;;;;;5004592;28;20252;-78
2021/12/21 11:45:12;;;;;;;17.67;10.50;;;;;;;;;;5011687;28;20211;-77
2021/12/21 11:47:41;;;;;;;14.73;9.97;;;;;;;;;;5009114;28;20176;-78
2021/12/21 11:50:08;;;;;;;13.07;9.27;;;;;;;;;;5005208;28;20187;-78
2021/12/21 11:52:47;;;;;;;12.80;9.03;;;;;;;;;;5014756;28;20237;-78
2021/12/21 11:55:13;;;;;;;14.63;9.23;;;;;;;;;;5009386;28;20176;-78
2021/12/21 11:58:05;;;;;;;14.33;8.77;;;;;;;;;;5006713;28;20199;-78
2021/12/21 12:00:31;;;;;;;12.83;8.90;;;;;;;;;;4976196;28;20183;-78
2021/12/21 12:03:13;;;;;;;12.03;7.97;;;;;;;;;;5007047;28;20193;-78
2021/12/21 12:05:41;;;;;;;11.97;8.77;;;;;;;;;;5009817;28;20163;-78
2021/12/21 12:08:08;;;;;;;13.73;8.73;;;;;;;;;;5010992;28;20175;-78
2021/12/21 12:10:34;;;;;;;15.20;9.03;;;;;;;;;;5007291;28;20495;-78
2021/12/21 12:13:10;;;;;;;11.23;8.03;;;;;;;;;;5011380;28;20183;-78
2021/12/21 12:16:05;;;;;;;15.43;8.73;;;;;;;;;;5009729;28;20201;-78
2021/12/21 12:18:35;;;;;;;12.57;7.27;;;;;;;;;;4990354;28;20187;-78
2021/12/21 12:21:14;;;;;;;11.00;7.67;;;;;;;;;;4998945;28;20170;-78
2021/12/21 12:23:47;;;;;;;10.67;6.47;;;;;;;;;;5004055;28;20191;-78
2021/12/21 12:26:20;;;;;;;8.90;6.77;;;;;;;;;;5014389;28;20202;-78
2021/12/21 12:28:45;;;;;;;8.73;6.90;;;;;;;;;;5011621;28;20191;-78
2021/12/21 12:31:10;;;;;;;9.17;6.97;;;;;;;;;;5011579;28;20172;-78
2021/12/21 12:33:37;;;;;;;9.90;6.07;;;;;;;;;;5003069;28;20194;-78
2021/12/21 12:36:03;;;;;;;11.07;6.87;;;;;;;;;;5004350;28;20196;-78
2021/12/21 12:38:29;;;;;;;10.83;6.87;;;;;;;;;;5005864;28;20182;-77
2021/12/21 12:40:55;;;;;;;6.10;5.23;;;;;;;;;;5012476;28;20184;-77
2021/12/21 12:43:22;;;;;;;7.87;5.17;;;;;;;;;;5008174;28;20284;-77
2021/12/21 12:45:52;;;;;;;11.73;6.70;;;;;;;;;;5013563;28;20182;-77
2021/12/21 12:48:17;;;;;;;8.23;5.43;;;;;;;;;;5016730;28;20180;-77
2021/12/21 12:50:45;;;;;;;16.23;6.77;;;;;;;;;;5010881;28;20186;-77
2021/12/21 12:53:10;;;;;;;13.13;7.90;;;;;;;;;;5016868;28;20214;-77
2021/12/21 12:55:41;;;;;;;9.70;6.87;;;;;;;;;;5011601;28;20227;-77
2021/12/21 12:58:15;;;;;;;13.03;8.20;;;;;;;;;;5009541;28;20212;-77
2021/12/21 13:00:42;;;;;;;12.50;7.20;;;;;;;;;;5012058;28;20176;-77
2021/12/21 13:03:08;;;;;;;11.93;7.13;;;;;;;;;;5004629;28;20209;-77
2021/12/21 13:05:35;;;;;;;8.37;6.00;;;;;;;;;;5008051;28;20175;-77
2021/12/21 13:08:15;;;;;;;8.60;7.00;;;;;;;;;;5009905;28;20173;-77
2021/12/21 13:10:45;;;;;;;16.67;6.67;;;;;;;;;;5011638;28;20183;-78
2021/12/21 13:13:10;;;;;;;12.40;6.33;;;;;;;;;;5008742;28;20180;-79
2021/12/21 13:15:38;;;;;;;10.47;5.93;;;;;;;;;;5009660;28;20261;-78
2021/12/21 13:18:04;;;;;;;7.67;5.43;;;;;;;;;;5012807;28;20174;-78
2021/12/21 13:20:30;;;;;;;8.43;5.53;;;;;;;;;;5008199;28;20190;-78
2021/12/21 13:22:56;;;;;;;11.57;6.87;;;;;;;;;;5007933;28;20211;-78
2021/12/21 13:25:21;;;;;;;9.77;6.73;;;;;;;;;;5013164;28;20164;-78
2021/12/21 13:27:46;;;;;;;9.57;6.27;;;;;;;;;;5019858;28;20198;-78
2021/12/21 13:30:11;;;;;;;8.53;6.10;;;;;;;;;;5011639;28;20182;-78
2021/12/21 13:32:37;;;;;;;9.97;7.43;;;;;;;;;;5015044;28;20270;-78
2021/12/21 13:35:02;;;;;;;8.93;6.53;;;;;;;;;;5011776;28;20246;-78
2021/12/21 13:37:29;;;;;;;7.73;5.77;;;;;;;;;;5010976;28;20211;-76
2021/12/21 13:39:57;;;;;;;6.80;6.17;;;;;;;;;;5007228;28;20203;-77
2021/12/21 13:42:23;;;;;;;8.47;6.43;;;;;;;;;;5025328;28;20607;-77
2021/12/21 13:44:53;;;;;;;8.93;6.00;;;;;;;;;;5036936;28;20189;-77
2021/12/21 13:47:29;;;;;;;10.23;6.43;;;;;;;;;;5043255;28;20187;-77
2021/12/21 13:50:04;;;;;;;12.77;6.87;;;;;;;;;;5030917;28;20190;-76
2021/12/21 13:52:31;;;;;;;10.40;6.13;;;;;;;;;;5037461;28;20201;-77
2021/12/21 13:54:57;;;;;;;12.53;7.93;;;;;;;;;;5030703;28;20189;-77
2021/12/21 13:57:22;;;;;;;7.23;5.57;;;;;;;;;;5031471;28;20202;-77
2021/12/21 13:59:53;;;;;;;10.10;6.70;;;;;;;;;;5035950;28;20190;-77
2021/12/21 14:02:25;;;;;;;7.10;6.20;;;;;;;;;;5034855;28;20189;-77
2021/12/21 14:04:59;;;;;;;9.03;6.50;;;;;;;;;;5029274;28;20259;-77
2021/12/21 14:07:25;;;;;;;20.37;11.90;;;;;;;;;;5035554;28;20192;-77
2021/12/21 14:10:00;;;;;;;11.17;6.50;;;;;;;;;;5037074;28;20207;-77
2021/12/21 14:12:25;;;;;;;13.10;5.80;;;;;;;;;;5033690;28;20212;-77
2021/12/21 14:14:50;;;;;;;7.07;6.00;;;;;;;;;;5031360;28;20229;-77
2021/12/21 14:17:16;;;;;;;7.63;5.63;;;;;;;;;;5030341;28;20293;-77
2021/12/21 14:19:43;;;;;;;7.73;6.20;;;;;;;;;;5035698;28;20177;-77
2021/12/21 14:22:08;;;;;;;7.63;6.40;;;;;;;;;;5044876;28;20174;-77
2021/12/21 14:24:34;;;;;;;8.40;5.70;;;;;;;;;;5033036;28;20185;-77
2021/12/21 14:27:03;;;;;;;9.87;5.80;;;;;;;;;;5033299;28;20182;-77
2021/12/21 14:29:29;;;;;;;7.93;6.37;;;;;;;;;;5031245;28;20178;-77
2021/12/21 14:34:28;;;;;;;8.83;6.43;;;;;;;;;;5046935;28;20213;-77
2021/12/21 14:36:53;;;;;;;7.87;6.27;;;;;;;;;;5031580;28;20194;-77
2021/12/21 14:39:19;;;;;;;11.70;7.13;;;;;;;;;;5033002;28;20177;-77
2021/12/21 14:41:46;;;;;;;15.40;7.53;;;;;;;;;;5034955;28;20166;-77
2021/12/21 14:44:19;;;;;;;11.10;7.10;;;;;;;;;;5032090;28;20182;-77
2021/12/21 14:46:51;;;;;;;10.33;7.10;;;;;;;;;;5031471;28;20182;-77
2021/12/21 14:49:22;;;;;;;10.37;7.27;;;;;;;;;;5031376;28;20181;-77
2021/12/21 14:51:51;;;;;;;12.67;7.50;;;;;;;;;;5048380;28;20457;-77
2021/12/21 14:54:26;;;;;;;8.83;6.60;;;;;;;;;;5025418;28;20174;-77
2021/12/21 14:56:53;;;;;;;10.30;6.50;;;;;;;;;;5034031;28;20202;-77
2021/12/21 14:59:28;;;;;;;16.17;6.87;;;;;;;;;;5044387;28;20170;-77
2021/12/21 15:01:58;;;;;;;9.10;6.30;;;;;;;;;;5028370;28;20270;-77
2021/12/21 15:04:24;;;;;;;6.83;5.53;;;;;;;;;;5050060;28;20512;-77
2021/12/21 15:06:49;;;;;;;11.33;6.73;;;;;;;;;;5032802;28;20216;-77
2021/12/21 15:09:15;;;;;;;6.90;5.70;;;;;;;;;;5033282;28;20186;-77
2021/12/21 15:11:51;;;;;;;10.37;6.63;;;;;;;;;;5036742;28;20186;-77
2021/12/21 15:14:17;;;;;;;9.87;7.53;;;;;;;;;;5032045;28;20225;-77
2021/12/21 15:16:42;;;;;;;7.13;5.40;;;;;;;;;;5037412;28;20209;-77
2021/12/21 15:19:08;;;;;;;7.93;6.37;;;;;;;;;;5034845;28;20171;-77
2021/12/21 15:21:33;;;;;;;7.47;6.57;;;;;;;;;;5033081;28;20189;-77
2021/12/21 15:24:00;;;;;;;7.60;5.30;;;;;;;;;;5049583;28;20312;-77
2021/12/21 15:26:26;;;;;;;8.80;5.57;;;;;;;;;;5035339;28;20201;-77
2021/12/21 15:28:51;;;;;;;7.10;5.70;;;;;;;;;;5030536;28;20174;-77